Data for 10/06/2007

Time Sea-Level Adjusted Pressure Absolute Pressure Temperature Relative Humidity Dew Point   
(mb) (inHg) (mb) (inHg) (C) (F) (%) (C) (F)
00:05 1013 29.91 842 24.86 1.5 34.6 95 0.8 33.4
00:10 1013 29.91 842 24.86 1.3 34.3 96 0.7 33.3
00:15 1013 29.91 842 24.86 1.1 34 97 0.6 33.1
00:20 1013 29.91 842 24.86 1 33.8 97 0.5 33
00:25 1013 29.91 842 24.86 1 33.9 96 0.5 32.9
00:30 1013 29.91 842 24.86 1 33.8 96 0.5 32.9
00:35 1013 29.91 842 24.86 1 33.9 96 0.5 32.9
00:40 1013 29.91 842 24.86 0.9 33.6 97 0.4 32.7
00:45 1013 29.91 842 24.86 0.8 33.5 97 0.4 32.7
00:50 1013 29.91 842 24.86 0.9 33.6 96 0.4 32.6
00:55 1013 29.91 842 24.86 0.8 33.5 97 0.4 32.7
01:00 1013 29.91 842 24.86 0.8 33.4 97 0.3 32.6
01:05 1013 29.91 842 24.86 0.8 33.5 97 0.3 32.6
01:10 1013 29.91 843 24.89 0.8 33.5 96 0.3 32.6
01:15 1013 29.91 842 24.86 0.8 33.4 97 0.3 32.6
01:20 1013 29.91 842 24.86 0.8 33.4 97 0.3 32.5
01:25 1013 29.91 842 24.86 0.7 33.3 97 0.3 32.5
01:30 1013 29.91 842 24.86 0.7 33.3 97 0.2 32.4
01:35 1013 29.91 842 24.86 0.7 33.3 97 0.3 32.5
01:40 1013 29.91 842 24.86 0.7 33.3 97 0.3 32.5
01:45 1013 29.91 842 24.86 0.5 33 97 0.2 32.3
01:50 1013 29.91 842 24.86 0.3 32.5 98 0.1 32.1
01:55 1013 29.91 842 24.86 0.3 32.5 99 0.1 32.2
02:00 1013 29.91 842 24.86 0.4 32.7 99 0.2 32.4
02:05 1013 29.91 842 24.86 0.6 33 98 0.3 32.5
02:10 1013 29.91 842 24.86 0.6 33.1 98 0.3 32.5
02:15 1013 29.91 842 24.86 0.7 33.3 97 0.3 32.5
02:20 1013 29.91 842 24.86 0.6 33.1 97 0.2 32.4
02:25 1013 29.91 842 24.86 0.5 33 97 0.2 32.3
02:30 1013 29.91 842 24.86 0.5 32.9 98 0.2 32.3
02:35 1013 29.91 842 24.86 0.5 32.9 98 0.2 32.3
02:40 1013 29.91 842 24.86 0.5 32.9 98 0.2 32.3
02:45 1013 29.91 842 24.86 0.5 33 98 0.2 32.3
02:50 1013 29.91 842 24.86 0.6 33 97 0.2 32.3
02:55 1013 29.91 842 24.86 0.6 33 97 0.2 32.3
03:00 1013 29.91 842 24.86 0.5 32.9 97 0.1 32.3
03:05 1013 29.91 842 24.86 0.5 32.9 98 0.2 32.3
03:10 1013 29.91 843 24.89 0.5 32.8 98 0.1 32.3
03:15 1013 29.91 843 24.89 0.4 32.7 98 0.1 32.2
03:20 1013 29.91 843 24.89 0.3 32.6 98 0.1 32.2
03:25 1013 29.91 843 24.89 0.3 32.6 98 0.1 32.2
03:30 1013 29.91 842 24.86 0.3 32.6 98 0.1 32.1
03:35 1013 29.91 842 24.86 0.3 32.5 98 0.1 32.1
03:40 1013 29.91 842 24.86 0.2 32.4 99 0.1 32.1
03:45 1013 29.91 843 24.89 0.2 32.4 99 0 32.1
03:50 1014 29.94 843 24.89 0.2 32.3 99 0.1 32.1
03:55 1013 29.91 843 24.89 0.2 32.4 99 0 32.1
04:00 1014 29.94 843 24.89 0.2 32.4 99 0.1 32.1
04:05 1013 29.91 843 24.89 0.2 32.4 99 0.1 32.2
04:10 1013 29.91 843 24.89 0.2 32.4 99 0.1 32.2
04:15 1013 29.91 842 24.86 0.3 32.5 99 0.1 32.3
04:20 1013 29.91 842 24.86 0.3 32.6 99 0.2 32.4
04:25 1013 29.91 842 24.86 0.3 32.6 99 0.2 32.4
04:30 1013 29.91 842 24.86 0.3 32.5 99 0.1 32.3
04:35 1013 29.91 842 24.86 0.3 32.6 99 0.2 32.3
04:40 1013 29.91 842 24.86 0.3 32.5 99 0.2 32.3
04:45 1013 29.91 843 24.89 0.3 32.5 99 0.1 32.2
04:50 1013 29.91 842 24.86 0.2 32.3 99 0 32
04:55 1013 29.91 842 24.86 0.1 32.2 99 0 32
05:00 1013 29.91 842 24.86 0.1 32.2 99 0 32
05:05 1013 29.91 842 24.86 0.2 32.3 99 0 32.1
05:10 1013 29.91 843 24.89 0.1 32.2 99 0 32
05:15 1013 29.91 843 24.89 0.1 32.2 99 0 32
05:20 1013 29.91 843 24.89 0.1 32.1 99 -0 32
05:25 1014 29.94 843 24.89 0.1 32.2 99 0 32
05:30 1014 29.94 843 24.89 0.1 32.2 100 0 32.1
05:35 1013 29.91 842 24.86 0.1 32.2 99 0 32.1
05:40 1013 29.91 843 24.89 0.2 32.3 100 0.1 32.2
05:45 1014 29.94 843 24.89 0.2 32.3 99 0.1 32.2
05:50 1014 29.94 843 24.89 0.2 32.3 99 0.1 32.1
05:55 1014 29.94 843 24.89 0.2 32.3 99 0.1 32.2
06:00 1014 29.94 843 24.89 0.3 32.5 99 0.2 32.3
06:05 1014 29.94 843 24.89 0.3 32.5 99 0.2 32.3
06:10 1014 29.94 843 24.89 0.4 32.6 99 0.2 32.4
06:15 1014 29.94 843 24.89 0.4 32.6 99 0.2 32.4
06:20 1014 29.94 843 24.89 0.3 32.5 99 0.2 32.3
06:25 1014 29.94 843 24.89 0.3 32.6 99 0.2 32.3
06:30 1014 29.94 843 24.89 0.3 32.6 99 0.2 32.4
06:35 1014 29.94 843 24.89 0.3 32.6 99 0.2 32.3
06:40 1014 29.94 843 24.89 0.3 32.5 99 0.1 32.2
06:45 1014 29.94 843 24.89 0.3 32.6 99 0.2 32.3
06:50 1014 29.94 843 24.89 0.4 32.7 99 0.2 32.4
06:55 1014 29.94 843 24.89 0.5 32.9 98 0.3 32.5
07:00 1014 29.94 843 24.89 0.5 32.9 98 0.2 32.4
07:05 1014 29.94 843 24.89 0.4 32.8 98 0.2 32.4
07:10 1014 29.94 843 24.89 0.4 32.8 98 0.2 32.4
07:15 1014 29.94 843 24.89 0.4 32.7 98 0.1 32.2
07:20 1014 29.94 843 24.89 0.3 32.6 98 0.1 32.1
07:25 1015 29.97 844 24.92 0.3 32.5 98 0 32.1
07:30 1015 29.97 844 24.92 0.2 32.4 98 -0 32
07:35 1014 29.94 844 24.92 0.2 32.3 99 0 32
07:40 1014 29.94 844 24.92 0.3 32.5 99 0.1 32.1
07:45 1014 29.94 843 24.89 0.3 32.5 98 0.1 32.1
07:50 1014 29.94 844 24.92 0.4 32.6 98 0.1 32.2
07:55 1014 29.94 843 24.89 0.3 32.6 98 0 32.1
08:00 1014 29.94 844 24.92 0.3 32.5 98 0 32.1
08:05 1014 29.94 843 24.89 0.3 32.5 98 -0 32
08:10 1014 29.94 844 24.92 0.3 32.5 98 -0 31.9
08:15 1014 29.94 844 24.92 0.2 32.4 98 -0.1 31.9
08:20 1014 29.94 844 24.92 0.2 32.4 98 -0.1 31.9
08:25 1015 29.97 844 24.92 0.3 32.5 98 -0 32
08:30 1015 29.97 844 24.92 0.2 32.4 98 -0 31.9
08:35 1015 29.97 844 24.92 0.3 32.5 98 -0 31.9
08:40 1015 29.97 844 24.92 0.3 32.5 98 0 32
08:45 1015 29.97 844 24.92 0.3 32.5 98 -0 31.9
08:50 1015 29.97 844 24.92 0.1 32.2 98 -0.1 31.8
08:55 1015 29.97 844 24.92 0 32.1 99 -0.1 31.7
09:00 1015 29.97 844 24.92 0.1 32.2 98 -0.1 31.8
09:05 1015 29.97 844 24.92 0.1 32.3 98 -0.1 31.9
09:10 1015 29.97 844 24.92 0.2 32.3 99 -0 31.9
09:15 1015 29.97 844 24.92 0.2 32.3 98 -0.1 31.9
09:20 1015 29.97 844 24.92 0.2 32.4 99 0 32
09:25 1015 29.97 844 24.92 0.3 32.6 98 -0 32
09:30 1015 29.97 844 24.92 0.3 32.6 98 0 32
09:35 1015 29.97 844 24.92 0.4 32.7 97 -0 32
09:40 1015 29.97 844 24.92 0.3 32.6 98 -0 32
09:45 1015 29.97 844 24.92 0.4 32.6 98 0 32.1
09:50 1015 29.97 844 24.92 0.3 32.6 98 0 32.1
09:55 1015 29.97 844 24.92 0.3 32.6 98 0 32
10:00 1015 29.97 844 24.92 0.3 32.5 98 0 32.1
10:05 1015 29.97 844 24.92 0.3 32.5 98 0 32.1
10:10 1015 29.97 844 24.92 0.3 32.6 98 0.1 32.1
10:15 1015 29.97 844 24.92 0.4 32.7 98 0.1 32.1
10:20 1015 29.97 844 24.92 0.4 32.8 98 0.1 32.2
10:25 1015 29.97 844 24.92 0.5 32.9 97 0.1 32.2
10:30 1015 29.97 844 24.92 0.6 33.1 97 0.1 32.2
10:35 1015 29.97 844 24.92 0.7 33.3 96 0.1 32.3
10:40 1015 29.97 844 24.92 0.8 33.5 96 0.2 32.4
10:45 1015 29.97 844 24.92 0.8 33.4 96 0.3 32.5
10:50 1015 29.97 844 24.92 0.7 33.3 96 0.2 32.4
10:55 1015 29.97 844 24.92 0.7 33.3 97 0.3 32.5
11:00 1015 29.97 844 24.92 0.8 33.5 96 0.2 32.4
11:05 1015 29.97 844 24.92 0.6 33 97 0.1 32.3
11:10 1015 29.97 844 24.92 0.6 33.1 97 0.1 32.3
11:15 1015 29.97 844 24.92 0.6 33.1 97 0.1 32.2
11:20 1015 29.97 844 24.92 0.6 33 97 0.1 32.3
11:25 1015 29.97 844 24.92 0.7 33.3 96 0.2 32.3
11:30 1015 29.97 844 24.92 0.8 33.4 96 0.2 32.4
11:35 1015 29.97 844 24.92 0.7 33.3 96 0.2 32.4
11:40 1015 29.97 844 24.92 0.6 33.1 97 0.2 32.4
11:45 1015 29.97 844 24.92 0.5 32.9 97 0.1 32.2
11:50 1015 29.97 845 24.95 0.6 33.1 97 0.1 32.2
11:55 1015 29.97 845 24.95 0.7 33.3 96 0.2 32.3
12:00 1015 29.97 845 24.95 0.8 33.5 96 0.3 32.5
12:05 1015 29.97 845 24.95 0.6 33.1 97 0.1 32.3
12:10 1015 29.97 845 24.95 0.5 33 97 0.1 32.1
12:15 1016 30 845 24.95 0.6 33.1 97 0.2 32.3
12:20 1016 30 845 24.95 0.7 33.2 96 0.2 32.3
12:25 1016 30 845 24.95 0.7 33.3 96 0.1 32.2
12:30 1016 30 845 24.95 0.9 33.6 96 0.3 32.5
12:35 1016 30 845 24.95 1 33.8 94 0.2 32.4
12:40 1016 30 845 24.95 0.9 33.6 96 0.3 32.5
12:45 1016 30 845 24.95 1 33.9 94 0.1 32.3
12:50 1016 30 845 24.95 1.1 34 94 0.3 32.5
12:55 1016 30 845 24.95 1.2 34.1 94 0.3 32.6
13:00 1016 30 845 24.95 1 33.8 95 0.2 32.4
13:05 1016 30 845 24.95 1.1 33.9 94 0.2 32.4
13:10 1016 30 845 24.95 1.2 34.1 95 0.4 32.7
13:15 1016 30 845 24.95 1.7 35.1 92 0.6 33.1
13:20 1016 30 845 24.95 1.9 35.3 92 0.7 33.3
13:25 1016 30 845 24.95 1.7 35 91 0.4 32.8
13:30 1016 30 845 24.95 1.5 34.7 92 0.4 32.7
13:35 1016 30 845 24.95 1.3 34.3 94 0.5 32.8
13:40 1016 30 845 24.95 1.4 34.5 93 0.4 32.7
13:45 1016 30 845 24.95 1.3 34.3 93 0.3 32.6
13:50 1016 30 845 24.95 1.3 34.4 93 0.4 32.7
13:55 1016 30 845 24.95 1.8 35.3 91 0.5 32.9
14:00 1016 30 845 24.95 2.2 36 90 0.7 33.2
14:05 1016 30 845 24.95 2.3 36.1 90 0.8 33.4
14:10 1016 30 845 24.95 2.4 36.3 89 0.7 33.3
14:15 1016 30 845 24.95 2.6 36.6 88 0.7 33.3
14:20 1016 30 845 24.95 2.5 36.6 89 0.9 33.7
14:25 1016 30 845 24.95 2.5 36.5 89 0.8 33.5
14:30 1016 30 845 24.95 2.5 36.6 88 0.8 33.5
14:35 1016 30 845 24.95 2.9 37.2 87 0.9 33.7
14:40 1016 30 845 24.95 3 37.4 85 0.8 33.4
14:45 1016 30 845 24.95 2.5 36.5 90 1 33.9
14:50 1016 30 845 24.95 2.6 36.8 90 1.2 34.1
14:55 1016 30 845 24.95 2.8 37 88 1.1 33.9
15:00 1016 30 845 24.95 3.4 38.1 86 1.2 34.2
15:05 1016 30 845 24.95 3.3 37.9 88 1.4 34.6
15:10 1016 30 845 24.95 3.2 37.7 88 1.4 34.5
15:15 1016 30 845 24.95 2.9 37.2 87 1 33.8
15:20 1016 30 845 24.95 2.7 36.8 87 0.8 33.4
15:25 1016 30 845 24.95 2.4 36.2 89 0.7 33.3
15:30 1016 30 846 24.98 2.4 36.3 89 0.7 33.3
15:35 1016 30 846 24.98 2.7 36.8 88 0.9 33.6
15:40 1017 30.03 846 24.98 3 37.4 87 1.1 33.9
15:45 1017 30.03 846 24.98 3.5 38.3 86 1.4 34.5
15:50 1017 30.03 846 24.98 3.8 38.8 85 1.6 34.8
15:55 1017 30.03 846 24.98 4 39.2 82 1.3 34.3
16:00 1017 30.03 846 24.98 4.1 39.4 81 1.1 34
16:05 1017 30.03 846 24.98 3.2 37.8 86 1.2 34.1
16:10 1017 30.03 846 24.98 3.4 38.1 83 0.9 33.6
16:15 1017 30.03 846 24.98 3.4 38.2 84 1 33.7
16:20 1017 30.03 846 24.98 3.6 38.4 84 1 33.9
16:25 1017 30.03 846 24.98 3.7 38.6 82 0.9 33.6
16:30 1017 30.03 846 24.98 3.3 37.9 82 0.5 32.9
16:35 1017 30.03 846 24.98 3.3 38 83 0.6 33.1
16:40 1017 30.03 846 24.98 3.4 38.1 85 1 33.8
16:45 1017 30.03 846 24.98 3.2 37.8 83 0.6 33.1
16:50 1017 30.03 846 24.98 3.4 38 83 0.7 33.2
16:55 1017 30.03 846 24.98 3.2 37.8 83 0.6 33.1
17:00 1017 30.03 846 24.98 3 37.4 84 0.5 32.8
17:05 1017 30.03 847 25.01 3.1 37.6 84 0.6 33.1
17:10 1017 30.03 847 25.01 3.1 37.5 84 0.5 33
17:15 1017 30.03 847 25.01 3 37.4 82 0.2 32.4
17:20 1017 30.03 847 25.01 2.9 37.2 81 0 32.1
17:25 1017 30.03 847 25.01 2.9 37.3 82 0.1 32.2
17:30 1018 30.06 847 25.01 3.1 37.6 80 -0.1 31.8
17:35 1018 30.06 847 25.01 3.2 37.7 78 -0.2 31.6
17:40 1018 30.06 847 25.01 3.1 37.5 82 0.2 32.4
17:45 1018 30.06 847 25.01 3.2 37.7 82 0.3 32.5
17:50 1018 30.06 847 25.01 3.5 38.2 79 0.2 32.4
17:55 1018 30.06 847 25.01 3.5 38.3 79 0.2 32.3
18:00 1018 30.06 847 25.01 3.6 38.5 78 0.2 32.3
18:05 1018 30.06 847 25.01 3.7 38.6 79 0.3 32.6
18:10 1018 30.06 847 25.01 3.7 38.6 80 0.5 33
18:15 1018 30.06 847 25.01 3.7 38.6 84 1.2 34.1
18:20 1018 30.06 847 25.01 3.5 38.3 84 1 33.8
18:25 1018 30.06 847 25.01 3.5 38.3 81 0.6 33
18:30 1018 30.06 847 25.01 3.5 38.2 83 0.9 33.6
18:35 1018 30.06 847 25.01 3.4 38.1 85 1.1 34
18:40 1018 30.06 847 25.01 3.4 38 83 0.8 33.5
18:45 1018 30.06 847 25.01 3.3 38 82 0.5 32.9
18:50 1018 30.06 847 25.01 3.4 38.1 82 0.6 33.1
18:55 1018 30.06 847 25.01 3.3 38 81 0.5 32.8
19:00 1018 30.06 847 25.01 3.2 37.7 83 0.5 33
19:05 1018 30.06 847 25.01 3 37.5 83 0.4 32.7
19:10 1018 30.06 847 25.01 3.1 37.5 82 0.3 32.5
19:15 1018 30.06 847 25.01 3.1 37.5 83 0.5 32.9
19:20 1018 30.06 847 25.01 3 37.5 83 0.5 32.9
19:25 1018 30.06 847 25.01 3 37.5 84 0.6 33
19:30 1018 30.06 847 25.01 3.1 37.5 83 0.4 32.7
19:35 1018 30.06 847 25.01 3.1 37.5 83 0.5 33
19:40 1018 30.06 847 25.01 3 37.4 82 0.3 32.6
19:45 1018 30.06 847 25.01 3.1 37.5 81 0.1 32.1
19:50 1018 30.06 847 25.01 3.1 37.6 81 0.1 32.2
19:55 1018 30.06 847 25.01 3.2 37.7 80 0.1 32.2
20:00 1018 30.06 847 25.01 3.2 37.8 79 -0 32
20:05 1018 30.06 847 25.01 3.2 37.8 80 0.2 32.3
20:10 1018 30.06 847 25.01 3.2 37.7 80 0.1 32.1
20:15 1018 30.06 848 25.04 3.2 37.7 80 0.1 32.2
20:20 1018 30.06 848 25.04 3 37.5 81 0.1 32.1
20:25 1018 30.06 848 25.04 3 37.4 81 -0 32
20:30 1018 30.06 848 25.04 3 37.4 81 -0 32
20:35 1018 30.06 848 25.04 3 37.4 80 -0.1 31.9
20:40 1018 30.06 848 25.04 3 37.4 81 -0 32
20:45 1018 30.06 847 25.01 3.1 37.6 80 -0.1 31.9
20:50 1018 30.06 848 25.04 3.1 37.6 79 -0.2 31.6
20:55 1019 30.09 848 25.04 3.2 37.7 78 -0.2 31.6
21:00 1019 30.09 848 25.04 3 37.4 79 -0.3 31.5
21:05 1019 30.09 848 25.04 3 37.4 79 -0.2 31.6
21:10 1019 30.09 848 25.04 3 37.4 78 -0.5 31.1
21:15 1019 30.09 848 25.04 3 37.5 78 -0.5 31.1
21:20 1019 30.09 848 25.04 3 37.4 78 -0.5 31
21:25 1019 30.09 848 25.04 3 37.5 77 -0.6 31
21:30 1019 30.09 848 25.04 3.1 37.6 75 -0.9 30.5
21:35 1019 30.09 848 25.04 3.3 38 74 -0.9 30.4
21:40 1019 30.09 848 25.04 3.4 38.1 73 -1 30.3
21:45 1019 30.09 848 25.04 3.4 38.1 77 -0.3 31.4
21:50 1019 30.09 848 25.04 3.2 37.7 76 -0.7 30.8
21:55 1019 30.09 849 25.07 3.1 37.6 77 -0.5 31.2
22:00 1019 30.09 848 25.04 3.1 37.5 78 -0.4 31.3
22:05 1019 30.09 848 25.04 2.9 37.2 79 -0.3 31.4
22:10 1019 30.09 848 25.04 2.8 37 80 -0.3 31.4
22:15 1019 30.09 849 25.07 2.8 37 83 0.3 32.5
22:20 1020 30.12 849 25.07 2.5 36.5 85 0.3 32.5
22:25 1020 30.12 849 25.07 2.3 36.2 85 0 32
22:30 1020 30.12 849 25.07 2.5 36.5 81 -0.4 31.3
22:35 1020 30.12 849 25.07 2.8 37 79 -0.4 31.2
22:40 1020 30.12 849 25.07 3.1 37.6 76 -0.7 30.8
22:45 1020 30.12 849 25.07 3.1 37.6 78 -0.4 31.3
22:50 1020 30.12 849 25.07 3.2 37.8 82 0.5 32.9
22:55 1020 30.12 849 25.07 3 37.4 80 -0.2 31.6
23:00 1020 30.12 849 25.07 3 37.4 79 -0.2 31.6
23:05 1020 30.12 849 25.07 3.1 37.5 77 -0.6 30.9
23:10 1020 30.12 849 25.07 3.1 37.5 78 -0.4 31.3
23:15 1020 30.12 849 25.07 3.1 37.5 81 0.2 32.3
23:20 1020 30.12 849 25.07 2.9 37.1 83 0.3 32.5
23:25 1020 30.12 849 25.07 2.7 36.9 81 -0.3 31.5
23:30 1020 30.12 849 25.07 2.7 36.8 80 -0.4 31.3
23:35 1020 30.12 849 25.07 2.6 36.7 80 -0.5 31.1
23:40 1020 30.12 849 25.07 2.6 36.6 81 -0.4 31.3
23:45 1020 30.12 849 25.07 2.6 36.7 82 -0.2 31.6
23:50 1020 30.12 849 25.07 2.5 36.5 82 -0.3 31.4
23:55 1020 30.12 849 25.07 2.5 36.6 80 -0.7 30.8
24:00 1020 30.12 849 25.07 2.5 36.4 80 -0.7 30.7